world map with MFM marked

MFM - Airport

This information may not be accurate or current and is not valid for navigation or flight planning. No warranty of fitness for any purpose is made or implied.

flag of Macau

Donate via PayPal

Additional information is available on the NEW Great Circle Mapper

Location
City:  Macau, Taipa Island, Macau
Name:Macau International Airport
ICAO / IATA:VMMC / MFM

Details
Type:Airport (Aerodrome, Airfield)
Use:Public/Civil
Latitude:22°08'58"N (22.149556)
Longitude:113°35'30"E (113.591558)
Datum:WGS 1984
Elevation:20 ft (6 m)
Runways:1
Longest:10544 × 148 ft (3214 × 45 m)

Time
Timezone:UTC+8 (DST+10)
Local Time:

Weather
METAR:VMMC  200800Z 11013KT 9999 FEW015 SCT030 24/20 Q1014 NOSIG
TAF:VMMC  200501Z 2006/2112 09014KT 9999 FEW015 SCT030

Related Locations
Nearby:
Farthest:SASQ: 12395 mi / 19947 km
La Quiaca, Y, AR

Find:

   beyond  
but within

Other Information
Maps:
Sources:

  


 


Great Circle Mapper   Great Circle Mapper
Great Circle Mapper FAQ   Great Circle Mapper FAQ
  Karl's Home Page
KLSē   KLSē Home
   GC on Facebook
Airlines of the World   Airlines of the World
Donate via PayPal


Copyright © 2004-2018, Karl L. Swartz. All rights reserved.
All trademarks mentioned herein belong to their respective owners.

Please see credits for attribution and copyright information.

Karl Swartz <karl@kls2.com>
  Powered by FreeBSD
Valid HTML 4.01!
Labeled with ICRA
hCard Microformat
Geo Microformat